Terminal Aerodrome Forecast
Issued by NWS

Current Version | Previous Version | Text Only | Print | Product List | Glossary On
Versions: 1 2 3 4 5 6 7 8 9 10 11 12
000
FTUS43 KSGF 242320
TAFJLN
TAF
KJLN 242320Z 2500/2524 17009KT P6SM SCT050 SCT100
     FM250900 20006KT P6SM VCTS BKN050CB PROB30 2512/2518 5SM -TSRA
      BKN030CB
     FM252000 33008KT P6SM BKN050=

USA.gov is the U.S. government's official web portal to all federal, state and local government web resources and services.